Odin, MN

7:01 AM CST on February 28, 2015 (GMT -0600)
NuWay Coop - Trimont | Change Station
CLOSE
Current Station
Personal Weather Station
Location: Trimont, MN
Elevation: 1220 ft
Nearby Weather Stations

Elev 1220 ft 43.76 °N, 94.72 °W | Updated 11 minutes ago

Partly Cloudy
Partly Cloudy
-3.7 °F
Feels Like -20 °F
N
9.0
Wind Variable Wind from SW
Gusts 10.0 mph

Today
High -- | Low -- °F
--% Chance of Precip.
Yesterday
High -- | Low -- °F
Precip. -- in
6:58 AM 6:06 PM
Waxing Gibbous, 77% visible
Pressure 30.47 in
Visibility 10.0 miles
Clouds Clear
Windchill -20 °F
Dew Point -7 °F
Humidity 84%
Rainfall 0.00 in
Snow Depth Not available.
UV 0 out of 12
Pollen .40 out of 12
Air Quality Not available.
Flu Activity Not available.
METAR KJYG 281255Z AUTO 16010KT 10SM CLR M19/M22 A3047 RMK AO2

More Conditions Fewer Conditions

Pressure 30.47 in
Visibility 10.0 miles
Clouds Clear
Windchill -20 °F
Dew Point -7 °F
Humidity 84%
Rainfall 0.00 in
Snow Depth Not available.
UV 0 out of 12
Pollen .40 out of 12
Air Quality Not available.
Flu Activity Not available.
METAR KJYG 281255Z AUTO 16010KT 10SM CLR M19/M22 A3047 RMK AO2

More Conditions Fewer Conditions

10-Day Weather Forecast

Almanac

Astronomy

Feb. 28, 2015 Rise Set
Actual Time
Civil Twilight
Nautical Twilight
Astronomical Twilight
Moon
Length of Visible Light
Length of Day
Tomorrow will be .
, % of the Moon is Illuminated

Today's Extremes

State Highs State Lows

Community

WunderPhotos

Upload Photos

1,801,002 photos uploaded!

WunderBlogs® & News

Nearby

Air Quality

  Air Quality AQ Index Pollutant
Not available.

Snow Depth

Station Depth Elevation

Earthquake Activity

City Distance Mag. Time & Date
Minimum magnitude displayed is 2.5.

Coastal Water Temperatures

Place Temperature

Nearby Weather Stations